createdAt,value
2023-05-01T00:01:17.769Z,12.90
2023-05-01T00:06:22.198Z,10.70
2023-05-01T00:11:24.967Z,11.00
2023-05-01T00:16:27.756Z,9.90
2023-05-01T00:21:31.114Z,9.00
2023-05-01T00:26:33.894Z,12.20
2023-05-01T00:31:36.859Z,13.40
2023-05-01T00:36:40.412Z,8.40
2023-05-01T00:41:43.225Z,10.10
2023-05-01T00:46:46.125Z,9.40
2023-05-01T00:51:53.392Z,9.70
2023-05-01T00:56:56.537Z,8.80
2023-05-01T01:01:59.565Z,8.30
2023-05-01T01:07:10.652Z,8.80
2023-05-01T01:12:27.573Z,8.90
2023-05-01T01:17:42.449Z,8.50
2023-05-01T01:22:53.540Z,6.50
2023-05-01T01:28:11.797Z,6.20
2023-05-01T01:33:24.098Z,5.30
2023-05-01T01:38:36.528Z,6.90
2023-05-01T01:43:44.117Z,6.80
2023-05-01T01:48:51.560Z,6.70
2023-05-01T01:53:58.802Z,6.20
2023-05-01T01:59:04.583Z,6.20
2023-05-01T02:04:08.939Z,5.90
2023-05-01T02:09:12.929Z,5.40
2023-05-01T02:14:18.507Z,4.50
2023-05-01T02:19:21.853Z,4.70
2023-05-01T02:24:25.503Z,5.50
2023-05-01T02:29:28.374Z,4.70
2023-05-01T02:34:34.847Z,4.80
2023-05-01T02:39:38.711Z,5.00
2023-05-01T02:45:11.671Z,4.50
2023-05-01T02:50:16.318Z,5.40
2023-05-01T02:55:19.675Z,5.90
2023-05-01T03:00:23.613Z,4.80
2023-05-01T03:05:27.023Z,9.00
2023-05-01T03:10:29.768Z,11.60
2023-05-01T03:15:32.576Z,11.20
2023-05-01T03:20:35.580Z,11.50
2023-05-01T03:25:38.328Z,10.40
2023-05-01T03:30:41.028Z,8.40
2023-05-01T03:35:44.434Z,7.30
2023-05-01T03:40:47.498Z,7.80
2023-05-01T03:45:51.450Z,9.00
2023-05-01T03:50:54.229Z,8.80
2023-05-01T03:55:57.560Z,5.70
2023-05-01T04:01:01.085Z,6.60
2023-05-01T04:06:04.189Z,6.10
2023-05-01T04:11:07.610Z,7.10
2023-05-01T04:16:10.592Z,6.60
2023-05-01T04:21:14.736Z,7.50
2023-05-01T04:26:17.668Z,7.10
2023-05-01T04:31:20.552Z,7.00
2023-05-01T04:36:23.535Z,5.50
2023-05-01T04:41:26.357Z,5.50
2023-05-01T04:46:29.273Z,6.00
2023-05-01T04:51:32.245Z,5.40
2023-05-01T04:56:35.162Z,4.70
2023-05-01T05:01:37.997Z,6.20
2023-05-01T05:06:40.822Z,5.50
2023-05-01T05:11:43.891Z,5.50
2023-05-01T05:16:47.003Z,4.40
2023-05-01T05:21:49.868Z,4.50
2023-05-01T05:26:52.785Z,4.60
2023-05-01T05:31:57.221Z,3.60
2023-05-01T05:36:59.964Z,4.10
2023-05-01T05:42:04.241Z,4.20
2023-05-01T05:47:07.282Z,4.50
2023-05-01T05:52:10.084Z,4.00
2023-05-01T05:57:13.074Z,4.10
2023-05-01T06:02:16.032Z,3.60
2023-05-01T06:07:18.899Z,3.90
2023-05-01T06:12:21.793Z,3.30
2023-05-01T06:17:25.621Z,3.40
2023-05-01T06:22:28.440Z,3.00
2023-05-01T06:27:31.194Z,3.90
2023-05-01T06:32:33.952Z,3.20
2023-05-01T06:37:38.511Z,3.10
2023-05-01T06:42:42.224Z,3.50
2023-05-01T06:47:45.127Z,3.30
2023-05-01T06:52:48.010Z,3.30
2023-05-01T06:57:50.894Z,3.20
2023-05-01T07:02:53.841Z,2.90
2023-05-01T07:08:01.170Z,3.00
2023-05-01T07:13:04.527Z,3.10
2023-05-01T07:18:07.345Z,2.90
2023-05-01T07:23:10.439Z,3.30
2023-05-01T07:28:13.228Z,3.20
2023-05-01T07:33:16.753Z,2.90
2023-05-01T07:38:19.702Z,3.20
2023-05-01T07:43:23.222Z,2.70
2023-05-01T07:48:28.449Z,3.10
2023-05-01T07:53:31.957Z,3.20
2023-05-01T07:58:36.442Z,3.20
2023-05-01T08:03:39.449Z,3.30
2023-05-01T08:08:42.418Z,3.10
2023-05-01T08:13:45.329Z,3.00
2023-05-01T08:18:48.086Z,3.20
2023-05-01T08:23:51.431Z,3.10
2023-05-01T08:28:54.268Z,3.00
2023-05-01T08:33:57.658Z,2.80
2023-05-01T08:39:00.479Z,3.00
2023-05-01T08:44:04.438Z,3.50
2023-05-01T08:49:11.617Z,3.00
2023-05-01T08:54:15.928Z,2.90
2023-05-01T08:59:20.706Z,3.10
2023-05-01T09:04:23.914Z,3.10
2023-05-01T09:09:28.007Z,3.10
2023-05-01T09:14:32.048Z,3.20
2023-05-01T09:19:34.920Z,2.80
2023-05-01T09:24:37.658Z,2.60
2023-05-01T09:29:46.110Z,3.00
2023-05-01T09:34:50.711Z,2.90
2023-05-01T09:40:11.382Z,3.00
2023-05-01T09:45:15.304Z,2.70
2023-05-01T09:50:35.000Z,2.70
2023-05-01T09:55:37.978Z,3.10
2023-05-01T10:00:50.082Z,2.50
2023-05-01T10:05:53.103Z,2.60
2023-05-01T10:11:05.377Z,2.60
2023-05-01T10:16:27.927Z,2.70
2023-05-01T10:21:34.523Z,2.60
2023-05-01T10:26:38.078Z,2.70
2023-05-01T10:31:42.703Z,2.70
2023-05-01T10:36:53.700Z,2.60
2023-05-01T10:41:59.722Z,2.60
2023-05-01T10:47:24.811Z,2.80
2023-05-01T10:52:27.901Z,2.30
2023-05-01T10:57:44.592Z,2.50
2023-05-01T11:02:47.386Z,2.20
2023-05-01T11:08:29.192Z,2.50
2023-05-01T11:14:04.369Z,2.50
2023-05-01T11:19:23.336Z,2.20
2023-05-01T11:24:33.153Z,2.50
2023-05-01T11:29:37.716Z,2.20
2023-05-01T11:34:40.853Z,2.40
2023-05-01T11:39:51.127Z,2.50
2023-05-01T11:45:08.008Z,2.80
2023-05-01T11:50:11.714Z,2.50
2023-05-01T11:55:14.617Z,2.50
2023-05-01T12:00:27.946Z,2.50
2023-05-01T12:05:32.148Z,3.10
2023-05-01T12:10:36.359Z,3.10
2023-05-01T12:15:50.809Z,2.70
2023-05-01T12:20:55.437Z,2.60
2023-05-01T12:25:58.399Z,2.40
2023-05-01T12:31:05.173Z,2.60
2023-05-01T12:36:13.013Z,2.50
2023-05-01T12:41:15.800Z,2.30
2023-05-01T12:46:18.707Z,2.60
2023-05-01T12:51:22.989Z,2.40
2023-05-01T12:56:26.027Z,2.60
2023-05-01T13:01:29.319Z,2.50
2023-05-01T13:06:35.555Z,2.40
2023-05-01T13:11:39.007Z,2.30
2023-05-01T13:16:49.840Z,2.50
2023-05-01T13:21:52.675Z,2.60
2023-05-01T13:27:02.377Z,2.70
2023-05-01T13:32:11.088Z,2.50
2023-05-01T13:37:14.114Z,2.60
2023-05-01T13:42:27.253Z,2.40
2023-05-01T13:47:30.105Z,2.80
2023-05-01T13:52:33.059Z,3.00
2023-05-01T13:57:38.559Z,2.50
2023-05-01T14:02:48.774Z,2.70
2023-05-01T14:07:57.199Z,2.40
2023-05-01T14:13:00.641Z,2.60
2023-05-01T14:18:07.551Z,2.50
2023-05-01T14:23:10.772Z,2.50
2023-05-01T14:28:14.812Z,2.50
2023-05-01T14:33:17.756Z,3.00
2023-05-01T14:38:25.850Z,2.90
2023-05-01T14:43:28.721Z,2.30
2023-05-01T14:48:36.014Z,2.80
2023-05-01T14:53:42.629Z,3.00
2023-05-01T14:58:46.968Z,3.10
2023-05-01T15:03:50.056Z,3.10
2023-05-01T15:08:53.114Z,2.40
2023-05-01T15:13:56.336Z,2.50
2023-05-01T15:18:59.610Z,2.40
2023-05-01T15:24:02.941Z,2.50
2023-05-01T15:29:05.678Z,3.00
2023-05-01T15:34:08.475Z,2.30
2023-05-01T15:39:12.109Z,2.30
2023-05-01T15:44:15.205Z,2.50
2023-05-01T15:49:18.677Z,3.00
2023-05-01T15:54:21.891Z,2.90
2023-05-01T15:59:25.672Z,3.40
2023-05-01T16:04:28.520Z,3.30
2023-05-01T16:09:32.433Z,2.90
2023-05-01T16:14:42.225Z,2.80
2023-05-01T16:19:45.970Z,2.80
2023-05-01T16:24:49.234Z,2.50
2023-05-01T16:29:52.347Z,2.70
2023-05-01T16:34:55.064Z,3.20
2023-05-01T16:39:59.649Z,2.90
2023-05-01T16:45:02.949Z,3.20
2023-05-01T16:50:09.824Z,3.80
2023-05-01T16:55:13.279Z,3.40
2023-05-01T17:00:17.139Z,3.20
2023-05-01T17:05:20.499Z,4.00
2023-05-01T17:10:23.278Z,3.90
2023-05-01T17:15:26.305Z,3.20
2023-05-01T17:20:29.067Z,5.00
2023-05-01T17:25:32.077Z,4.90
2023-05-01T17:30:35.446Z,4.60
2023-05-01T17:35:38.295Z,6.50
2023-05-01T17:40:41.306Z,12.20
2023-05-01T17:45:45.685Z,14.50
2023-05-01T17:50:49.161Z,21.30
2023-05-01T17:55:51.999Z,19.20
2023-05-01T18:00:55.899Z,18.10
2023-05-01T18:06:04.574Z,15.50
2023-05-01T18:11:07.532Z,10.20
2023-05-01T18:16:11.325Z,8.70
2023-05-01T18:21:14.782Z,7.70
2023-05-01T18:26:17.881Z,7.50
2023-05-01T18:31:20.916Z,7.00
2023-05-01T18:36:24.204Z,8.60
2023-05-01T18:41:27.419Z,11.10
2023-05-01T18:46:30.362Z,12.40
2023-05-01T18:51:33.435Z,11.50
2023-05-01T18:56:36.230Z,9.60
2023-05-01T19:01:39.093Z,10.30
2023-05-01T19:06:41.949Z,7.80
2023-05-01T19:11:44.938Z,7.50
2023-05-01T19:16:47.914Z,6.70
2023-05-01T19:21:51.213Z,6.20
2023-05-01T19:26:54.054Z,5.70
2023-05-01T19:31:57.034Z,6.00
2023-05-01T19:37:02.084Z,5.20
2023-05-01T19:42:05.006Z,3.90
2023-05-01T19:47:07.832Z,4.10
2023-05-01T19:52:10.678Z,4.30
2023-05-01T19:57:13.462Z,4.20
2023-05-01T20:02:16.485Z,4.50
2023-05-01T20:07:19.341Z,4.70
2023-05-01T20:12:25.117Z,3.90
2023-05-01T20:17:28.026Z,4.50
2023-05-01T20:22:30.773Z,4.80
2023-05-01T20:27:33.729Z,4.50
2023-05-01T20:37:44.862Z,4.40
2023-05-01T20:42:47.766Z,4.70
2023-05-01T20:47:50.582Z,5.00
2023-05-01T20:52:55.681Z,4.70
2023-05-01T20:57:58.759Z,5.10
2023-05-01T21:03:01.957Z,4.40
2023-05-01T21:08:04.943Z,4.80
2023-05-01T21:13:07.673Z,4.70
2023-05-01T21:18:14.337Z,5.20
2023-05-01T21:23:17.899Z,5.10
2023-05-01T21:28:20.865Z,4.30
2023-05-01T21:33:23.687Z,5.30
2023-05-01T21:38:26.786Z,4.50
2023-05-01T21:43:33.795Z,4.90
2023-05-01T21:48:36.586Z,4.50
2023-05-01T21:53:41.120Z,4.50
2023-05-01T21:58:44.007Z,4.20
2023-05-01T22:03:46.909Z,4.40
2023-05-01T22:08:53.215Z,5.10
2023-05-01T22:13:56.946Z,4.60
2023-05-01T22:19:00.596Z,4.50
2023-05-01T22:24:03.605Z,5.60
2023-05-01T22:29:06.981Z,5.70
2023-05-01T22:34:10.049Z,5.70
2023-05-01T22:39:12.799Z,5.50
2023-05-01T22:44:15.993Z,4.30
2023-05-01T22:49:19.008Z,5.50
2023-05-01T22:54:22.230Z,5.90
2023-05-01T22:59:26.043Z,5.70
2023-05-01T23:04:29.427Z,5.30
2023-05-01T23:09:32.563Z,5.70
2023-05-01T23:14:41.188Z,3.60
2023-05-01T23:19:45.620Z,5.30
2023-05-01T23:24:49.437Z,5.40
2023-05-01T23:29:54.896Z,4.90
2023-05-01T23:35:05.126Z,5.10
2023-05-01T23:40:09.642Z,4.60
2023-05-01T23:45:12.974Z,5.00
2023-05-01T23:50:16.197Z,4.90
2023-05-01T23:55:19.083Z,4.40
